sensor_id;sensor_type;location;lat;lon;timestamp;P1;durP1;ratioP1;P2;durP2;ratioP2
10120;SDS011;5100;45.176;5.714;2023-02-02T00:01:22;8.27;;;4.50;;
10120;SDS011;5100;45.176;5.714;2023-02-02T00:03:49;8.20;;;4.00;;
10120;SDS011;5100;45.176;5.714;2023-02-02T00:06:15;5.43;;;4.00;;
10120;SDS011;5100;45.176;5.714;2023-02-02T00:08:45;7.63;;;4.40;;
10120;SDS011;5100;45.176;5.714;2023-02-02T00:11:11;9.47;;;4.13;;
10120;SDS011;5100;45.176;5.714;2023-02-02T00:13:38;6.23;;;3.90;;
10120;SDS011;5100;45.176;5.714;2023-02-02T00:18:59;7.03;;;3.87;;
10120;SDS011;5100;45.176;5.714;2023-02-02T00:21:26;7.00;;;4.23;;
10120;SDS011;5100;45.176;5.714;2023-02-02T00:23:53;6.27;;;4.00;;
10120;SDS011;5100;45.176;5.714;2023-02-02T00:26:19;7.47;;;4.03;;
10120;SDS011;5100;45.176;5.714;2023-02-02T00:28:46;8.87;;;3.93;;
10120;SDS011;5100;45.176;5.714;2023-02-02T00:31:12;8.37;;;4.03;;
10120;SDS011;5100;45.176;5.714;2023-02-02T00:33:43;8.50;;;4.20;;
10120;SDS011;5100;45.176;5.714;2023-02-02T00:36:10;5.93;;;3.70;;
10120;SDS011;5100;45.176;5.714;2023-02-02T00:38:36;7.30;;;4.03;;
10120;SDS011;5100;45.176;5.714;2023-02-02T00:41:03;5.43;;;4.03;;
10120;SDS011;5100;45.176;5.714;2023-02-02T00:43:30;8.27;;;4.17;;
10120;SDS011;5100;45.176;5.714;2023-02-02T00:45:55;4.83;;;3.57;;
10120;SDS011;5100;45.176;5.714;2023-02-02T00:48:22;8.43;;;3.97;;
10120;SDS011;5100;45.176;5.714;2023-02-02T00:50:50;9.17;;;4.13;;
10120;SDS011;5100;45.176;5.714;2023-02-02T00:53:17;9.03;;;3.70;;
10120;SDS011;5100;45.176;5.714;2023-02-02T00:55:43;7.73;;;4.00;;
10120;SDS011;5100;45.176;5.714;2023-02-02T00:58:09;8.17;;;4.13;;
10120;SDS011;5100;45.176;5.714;2023-02-02T01:00:35;5.50;;;3.60;;
10120;SDS011;5100;45.176;5.714;2023-02-02T01:03:02;8.13;;;3.63;;
10120;SDS011;5100;45.176;5.714;2023-02-02T01:05:29;4.93;;;3.60;;
10120;SDS011;5100;45.176;5.714;2023-02-02T01:07:56;6.00;;;3.43;;
10120;SDS011;5100;45.176;5.714;2023-02-02T01:10:22;8.43;;;3.83;;
10120;SDS011;5100;45.176;5.714;2023-02-02T01:12:48;8.57;;;3.90;;
10120;SDS011;5100;45.176;5.714;2023-02-02T01:15:14;6.33;;;3.47;;
10120;SDS011;5100;45.176;5.714;2023-02-02T01:17:41;6.37;;;3.13;;
10120;SDS011;5100;45.176;5.714;2023-02-02T01:20:07;9.67;;;3.43;;
10120;SDS011;5100;45.176;5.714;2023-02-02T01:22:35;6.60;;;3.67;;
10120;SDS011;5100;45.176;5.714;2023-02-02T01:25:03;8.50;;;4.00;;
10120;SDS011;5100;45.176;5.714;2023-02-02T01:27:29;6.77;;;4.03;;
10120;SDS011;5100;45.176;5.714;2023-02-02T01:29:57;6.67;;;4.20;;
10120;SDS011;5100;45.176;5.714;2023-02-02T01:32:23;8.67;;;3.70;;
10120;SDS011;5100;45.176;5.714;2023-02-02T01:34:49;6.10;;;3.90;;
10120;SDS011;5100;45.176;5.714;2023-02-02T01:37:15;5.93;;;3.47;;
10120;SDS011;5100;45.176;5.714;2023-02-02T01:39:42;5.90;;;3.30;;
10120;SDS011;5100;45.176;5.714;2023-02-02T01:42:11;7.53;;;3.80;;
10120;SDS011;5100;45.176;5.714;2023-02-02T01:47:22;7.70;;;4.03;;
10120;SDS011;5100;45.176;5.714;2023-02-02T01:49:51;6.37;;;3.80;;
10120;SDS011;5100;45.176;5.714;2023-02-02T01:52:21;7.57;;;3.90;;
10120;SDS011;5100;45.176;5.714;2023-02-02T01:54:50;6.60;;;3.60;;
10120;SDS011;5100;45.176;5.714;2023-02-02T01:57:32;6.63;;;3.50;;
10120;SDS011;5100;45.176;5.714;2023-02-02T02:00:07;5.63;;;2.80;;
10120;SDS011;5100;45.176;5.714;2023-02-02T02:02:38;7.10;;;3.63;;
10120;SDS011;5100;45.176;5.714;2023-02-02T02:05:06;8.10;;;3.77;;
10120;SDS011;5100;45.176;5.714;2023-02-02T02:07:34;6.07;;;3.47;;
10120;SDS011;5100;45.176;5.714;2023-02-02T02:10:00;4.27;;;3.30;;
10120;SDS011;5100;45.176;5.714;2023-02-02T02:12:28;6.07;;;3.33;;
10120;SDS011;5100;45.176;5.714;2023-02-02T02:14:54;7.40;;;3.80;;
10120;SDS011;5100;45.176;5.714;2023-02-02T02:27:20;8.10;;;4.13;;
10120;SDS011;5100;45.176;5.714;2023-02-02T02:33:03;9.07;;;4.00;;
10120;SDS011;5100;45.176;5.714;2023-02-02T02:35:49;9.17;;;4.10;;
10120;SDS011;5100;45.176;5.714;2023-02-02T02:38:40;6.70;;;3.60;;
10120;SDS011;5100;45.176;5.714;2023-02-02T02:41:26;8.67;;;4.20;;
10120;SDS011;5100;45.176;5.714;2023-02-02T02:43:59;6.93;;;3.50;;
10120;SDS011;5100;45.176;5.714;2023-02-02T02:46:28;7.27;;;3.70;;
10120;SDS011;5100;45.176;5.714;2023-02-02T02:48:59;7.50;;;3.13;;
10120;SDS011;5100;45.176;5.714;2023-02-02T02:51:41;8.70;;;4.07;;
10120;SDS011;5100;45.176;5.714;2023-02-02T02:54:13;7.67;;;4.13;;
10120;SDS011;5100;45.176;5.714;2023-02-02T02:57:26;8.37;;;3.87;;
10120;SDS011;5100;45.176;5.714;2023-02-02T03:02:47;8.30;;;3.83;;
10120;SDS011;5100;45.176;5.714;2023-02-02T03:10:49;8.33;;;3.60;;
10120;SDS011;5100;45.176;5.714;2023-02-02T03:13:16;8.27;;;3.97;;
10120;SDS011;5100;45.176;5.714;2023-02-02T03:15:44;12.30;;;4.43;;
10120;SDS011;5100;45.176;5.714;2023-02-02T03:18:11;9.90;;;4.20;;
10120;SDS011;5100;45.176;5.714;2023-02-02T03:20:39;10.47;;;3.70;;
10120;SDS011;5100;45.176;5.714;2023-02-02T03:23:08;5.50;;;3.73;;
10120;SDS011;5100;45.176;5.714;2023-02-02T03:25:34;6.97;;;3.70;;
10120;SDS011;5100;45.176;5.714;2023-02-02T03:28:01;7.80;;;3.60;;
10120;SDS011;5100;45.176;5.714;2023-02-02T03:30:27;8.57;;;3.83;;
10120;SDS011;5100;45.176;5.714;2023-02-02T03:32:53;8.93;;;3.37;;
10120;SDS011;5100;45.176;5.714;2023-02-02T03:35:19;6.83;;;3.60;;
10120;SDS011;5100;45.176;5.714;2023-02-02T03:37:46;8.27;;;3.73;;
10120;SDS011;5100;45.176;5.714;2023-02-02T03:40:12;5.43;;;3.40;;
10120;SDS011;5100;45.176;5.714;2023-02-02T03:42:39;7.63;;;3.60;;
10120;SDS011;5100;45.176;5.714;2023-02-02T03:45:06;6.23;;;3.50;;
10120;SDS011;5100;45.176;5.714;2023-02-02T03:47:32;7.77;;;3.30;;
10120;SDS011;5100;45.176;5.714;2023-02-02T03:49:58;6.30;;;3.50;;
10120;SDS011;5100;45.176;5.714;2023-02-02T03:52:25;4.70;;;3.30;;
10120;SDS011;5100;45.176;5.714;2023-02-02T03:54:51;6.20;;;3.47;;
10120;SDS011;5100;45.176;5.714;2023-02-02T03:57:17;6.53;;;3.47;;
10120;SDS011;5100;45.176;5.714;2023-02-02T03:59:44;6.50;;;3.97;;
10120;SDS011;5100;45.176;5.714;2023-02-02T04:02:10;5.30;;;3.63;;
10120;SDS011;5100;45.176;5.714;2023-02-02T04:04:36;5.67;;;4.40;;
10120;SDS011;5100;45.176;5.714;2023-02-02T04:07:02;8.17;;;4.20;;
10120;SDS011;5100;45.176;5.714;2023-02-02T04:09:28;7.27;;;3.53;;
10120;SDS011;5100;45.176;5.714;2023-02-02T04:11:54;6.70;;;3.40;;
10120;SDS011;5100;45.176;5.714;2023-02-02T04:14:20;5.73;;;3.43;;
10120;SDS011;5100;45.176;5.714;2023-02-02T04:16:46;6.30;;;4.17;;
10120;SDS011;5100;45.176;5.714;2023-02-02T04:19:13;7.17;;;4.10;;
10120;SDS011;5100;45.176;5.714;2023-02-02T04:21:39;7.40;;;4.20;;
10120;SDS011;5100;45.176;5.714;2023-02-02T04:24:06;8.63;;;4.10;;
10120;SDS011;5100;45.176;5.714;2023-02-02T04:26:35;6.47;;;3.87;;
10120;SDS011;5100;45.176;5.714;2023-02-02T04:29:01;5.50;;;3.73;;
10120;SDS011;5100;45.176;5.714;2023-02-02T04:31:27;7.17;;;3.83;;
10120;SDS011;5100;45.176;5.714;2023-02-02T04:33:55;7.43;;;3.97;;
10120;SDS011;5100;45.176;5.714;2023-02-02T04:36:21;6.13;;;4.40;;
10120;SDS011;5100;45.176;5.714;2023-02-02T04:38:48;6.07;;;4.03;;
10120;SDS011;5100;45.176;5.714;2023-02-02T04:41:16;6.17;;;4.33;;
10120;SDS011;5100;45.176;5.714;2023-02-02T04:43:45;5.97;;;4.07;;
10120;SDS011;5100;45.176;5.714;2023-02-02T04:46:12;7.83;;;4.30;;
10120;SDS011;5100;45.176;5.714;2023-02-02T04:48:39;6.07;;;4.23;;
10120;SDS011;5100;45.176;5.714;2023-02-02T04:51:07;5.70;;;3.90;;
10120;SDS011;5100;45.176;5.714;2023-02-02T04:53:35;8.83;;;4.03;;
10120;SDS011;5100;45.176;5.714;2023-02-02T04:56:05;8.23;;;4.53;;
10120;SDS011;5100;45.176;5.714;2023-02-02T04:58:32;7.53;;;4.43;;
10120;SDS011;5100;45.176;5.714;2023-02-02T05:00:58;6.03;;;4.43;;
10120;SDS011;5100;45.176;5.714;2023-02-02T05:03:25;8.30;;;5.00;;
10120;SDS011;5100;45.176;5.714;2023-02-02T05:05:50;4.80;;;4.07;;
10120;SDS011;5100;45.176;5.714;2023-02-02T05:08:25;5.00;;;4.50;;
10120;SDS011;5100;45.176;5.714;2023-02-02T05:10:51;6.53;;;3.97;;
10120;SDS011;5100;45.176;5.714;2023-02-02T05:13:17;9.33;;;4.53;;
10120;SDS011;5100;45.176;5.714;2023-02-02T05:15:43;8.13;;;4.53;;
10120;SDS011;5100;45.176;5.714;2023-02-02T05:18:09;8.37;;;4.07;;
10120;SDS011;5100;45.176;5.714;2023-02-02T05:20:35;7.57;;;3.70;;
10120;SDS011;5100;45.176;5.714;2023-02-02T05:23:01;7.37;;;4.27;;
10120;SDS011;5100;45.176;5.714;2023-02-02T05:25:27;10.07;;;4.23;;
10120;SDS011;5100;45.176;5.714;2023-02-02T05:27:53;7.53;;;3.90;;
10120;SDS011;5100;45.176;5.714;2023-02-02T05:30:19;6.47;;;3.97;;
10120;SDS011;5100;45.176;5.714;2023-02-02T05:32:45;7.93;;;4.03;;
10120;SDS011;5100;45.176;5.714;2023-02-02T05:35:11;7.00;;;4.10;;
10120;SDS011;5100;45.176;5.714;2023-02-02T05:37:37;5.33;;;4.03;;
10120;SDS011;5100;45.176;5.714;2023-02-02T05:40:04;8.23;;;4.13;;
10120;SDS011;5100;45.176;5.714;2023-02-02T05:42:30;6.03;;;3.90;;
10120;SDS011;5100;45.176;5.714;2023-02-02T05:44:57;6.37;;;4.17;;
10120;SDS011;5100;45.176;5.714;2023-02-02T05:47:23;8.00;;;4.30;;
10120;SDS011;5100;45.176;5.714;2023-02-02T05:49:49;5.53;;;4.37;;
10120;SDS011;5100;45.176;5.714;2023-02-02T05:52:16;6.50;;;3.83;;
10120;SDS011;5100;45.176;5.714;2023-02-02T05:54:44;5.97;;;3.90;;
10120;SDS011;5100;45.176;5.714;2023-02-02T05:57:10;9.57;;;4.70;;
10120;SDS011;5100;45.176;5.714;2023-02-02T05:59:36;7.83;;;4.57;;
10120;SDS011;5100;45.176;5.714;2023-02-02T06:02:02;5.10;;;3.70;;
10120;SDS011;5100;45.176;5.714;2023-02-02T06:04:29;8.63;;;4.47;;
10120;SDS011;5100;45.176;5.714;2023-02-02T06:06:55;6.50;;;4.50;;
10120;SDS011;5100;45.176;5.714;2023-02-02T06:09:21;5.07;;;4.20;;
10120;SDS011;5100;45.176;5.714;2023-02-02T06:11:48;7.03;;;5.07;;
10120;SDS011;5100;45.176;5.714;2023-02-02T06:14:14;7.03;;;4.97;;
10120;SDS011;5100;45.176;5.714;2023-02-02T06:16:40;9.90;;;5.30;;
10120;SDS011;5100;45.176;5.714;2023-02-02T06:19:06;6.37;;;4.90;;
10120;SDS011;5100;45.176;5.714;2023-02-02T06:21:32;9.57;;;5.17;;
10120;SDS011;5100;45.176;5.714;2023-02-02T06:23:58;8.97;;;5.40;;
10120;SDS011;5100;45.176;5.714;2023-02-02T06:26:25;5.63;;;4.53;;
10120;SDS011;5100;45.176;5.714;2023-02-02T06:28:52;5.50;;;4.60;;
10120;SDS011;5100;45.176;5.714;2023-02-02T06:31:19;6.80;;;4.87;;
10120;SDS011;5100;45.176;5.714;2023-02-02T06:33:46;9.10;;;4.90;;
10120;SDS011;5100;45.176;5.714;2023-02-02T06:36:16;8.07;;;4.93;;
10120;SDS011;5100;45.176;5.714;2023-02-02T06:38:43;8.23;;;5.10;;
10120;SDS011;5100;45.176;5.714;2023-02-02T06:41:13;6.77;;;4.53;;
10120;SDS011;5100;45.176;5.714;2023-02-02T06:43:39;8.50;;;4.60;;
10120;SDS011;5100;45.176;5.714;2023-02-02T06:46:05;7.80;;;4.57;;
10120;SDS011;5100;45.176;5.714;2023-02-02T06:48:31;6.70;;;4.47;;
10120;SDS011;5100;45.176;5.714;2023-02-02T06:50:57;8.53;;;4.43;;
10120;SDS011;5100;45.176;5.714;2023-02-02T06:53:24;6.27;;;4.03;;
10120;SDS011;5100;45.176;5.714;2023-02-02T06:55:54;6.93;;;4.40;;
10120;SDS011;5100;45.176;5.714;2023-02-02T06:58:22;6.83;;;4.23;;
10120;SDS011;5100;45.176;5.714;2023-02-02T07:00:48;9.00;;;4.00;;
10120;SDS011;5100;45.176;5.714;2023-02-02T07:03:15;10.10;;;4.13;;
10120;SDS011;5100;45.176;5.714;2023-02-02T07:05:41;6.67;;;4.40;;
10120;SDS011;5100;45.176;5.714;2023-02-02T07:08:07;5.90;;;4.60;;
10120;SDS011;5100;45.176;5.714;2023-02-02T07:10:35;9.80;;;4.47;;
10120;SDS011;5100;45.176;5.714;2023-02-02T07:13:03;7.80;;;4.73;;
10120;SDS011;5100;45.176;5.714;2023-02-02T07:15:32;10.03;;;5.33;;
10120;SDS011;5100;45.176;5.714;2023-02-02T07:17:59;7.67;;;5.40;;
10120;SDS011;5100;45.176;5.714;2023-02-02T07:20:25;7.37;;;5.20;;
10120;SDS011;5100;45.176;5.714;2023-02-02T07:22:51;6.93;;;5.60;;
10120;SDS011;5100;45.176;5.714;2023-02-02T07:25:18;7.93;;;5.83;;
10120;SDS011;5100;45.176;5.714;2023-02-02T07:27:44;6.77;;;5.40;;
10120;SDS011;5100;45.176;5.714;2023-02-02T07:30:12;6.87;;;5.10;;
10120;SDS011;5100;45.176;5.714;2023-02-02T07:32:38;9.00;;;5.43;;
10120;SDS011;5100;45.176;5.714;2023-02-02T07:35:04;7.40;;;5.73;;
10120;SDS011;5100;45.176;5.714;2023-02-02T07:37:30;8.80;;;5.73;;
10120;SDS011;5100;45.176;5.714;2023-02-02T07:39:57;8.50;;;5.83;;
10120;SDS011;5100;45.176;5.714;2023-02-02T07:42:23;7.50;;;5.53;;
10120;SDS011;5100;45.176;5.714;2023-02-02T07:44:49;8.40;;;5.60;;
10120;SDS011;5100;45.176;5.714;2023-02-02T07:47:15;7.47;;;5.47;;
10120;SDS011;5100;45.176;5.714;2023-02-02T07:49:41;7.83;;;5.33;;
10120;SDS011;5100;45.176;5.714;2023-02-02T07:52:07;8.00;;;5.20;;
10120;SDS011;5100;45.176;5.714;2023-02-02T07:54:34;6.00;;;5.27;;
10120;SDS011;5100;45.176;5.714;2023-02-02T07:57:00;6.57;;;5.43;;
10120;SDS011;5100;45.176;5.714;2023-02-02T07:59:26;6.60;;;5.60;;
10120;SDS011;5100;45.176;5.714;2023-02-02T08:01:53;8.93;;;4.83;;
10120;SDS011;5100;45.176;5.714;2023-02-02T08:04:19;6.90;;;5.50;;
10120;SDS011;5100;45.176;5.714;2023-02-02T08:06:45;7.77;;;5.60;;
10120;SDS011;5100;45.176;5.714;2023-02-02T08:09:11;8.83;;;5.40;;
10120;SDS011;5100;45.176;5.714;2023-02-02T08:11:37;8.03;;;6.00;;
10120;SDS011;5100;45.176;5.714;2023-02-02T08:14:04;8.37;;;5.67;;
10120;SDS011;5100;45.176;5.714;2023-02-02T08:16:30;11.73;;;5.70;;
10120;SDS011;5100;45.176;5.714;2023-02-02T08:18:58;6.93;;;6.03;;
10120;SDS011;5100;45.176;5.714;2023-02-02T08:21:24;12.33;;;6.50;;
10120;SDS011;5100;45.176;5.714;2023-02-02T08:23:51;10.50;;;6.73;;
10120;SDS011;5100;45.176;5.714;2023-02-02T08:26:19;10.40;;;6.17;;
10120;SDS011;5100;45.176;5.714;2023-02-02T08:28:56;9.27;;;6.40;;
10120;SDS011;5100;45.176;5.714;2023-02-02T08:31:26;9.53;;;6.20;;
10120;SDS011;5100;45.176;5.714;2023-02-02T08:34:00;11.87;;;6.47;;
10120;SDS011;5100;45.176;5.714;2023-02-02T08:36:28;8.03;;;5.77;;
10120;SDS011;5100;45.176;5.714;2023-02-02T08:38:58;9.13;;;6.77;;
10120;SDS011;5100;45.176;5.714;2023-02-02T08:41:26;10.47;;;6.73;;
10120;SDS011;5100;45.176;5.714;2023-02-02T08:43:52;8.23;;;6.97;;
10120;SDS011;5100;45.176;5.714;2023-02-02T08:46:19;12.67;;;7.00;;
10120;SDS011;5100;45.176;5.714;2023-02-02T08:48:46;11.97;;;6.80;;
10120;SDS011;5100;45.176;5.714;2023-02-02T08:51:14;10.17;;;7.40;;
10120;SDS011;5100;45.176;5.714;2023-02-02T08:53:43;11.13;;;7.03;;
10120;SDS011;5100;45.176;5.714;2023-02-02T08:56:17;9.63;;;7.10;;
10120;SDS011;5100;45.176;5.714;2023-02-02T08:58:46;9.67;;;6.20;;
10120;SDS011;5100;45.176;5.714;2023-02-02T09:01:14;11.50;;;7.03;;
10120;SDS011;5100;45.176;5.714;2023-02-02T09:03:41;9.43;;;6.90;;
10120;SDS011;5100;45.176;5.714;2023-02-02T09:06:08;13.40;;;7.10;;
10120;SDS011;5100;45.176;5.714;2023-02-02T09:08:36;10.37;;;7.17;;
10120;SDS011;5100;45.176;5.714;2023-02-02T09:11:06;11.40;;;7.20;;
10120;SDS011;5100;45.176;5.714;2023-02-02T09:13:35;10.07;;;6.93;;
10120;SDS011;5100;45.176;5.714;2023-02-02T09:16:03;9.97;;;6.33;;
10120;SDS011;5100;45.176;5.714;2023-02-02T09:18:31;10.27;;;7.10;;
10120;SDS011;5100;45.176;5.714;2023-02-02T09:20:58;9.67;;;7.10;;
10120;SDS011;5100;45.176;5.714;2023-02-02T09:23:32;8.77;;;6.73;;
10120;SDS011;5100;45.176;5.714;2023-02-02T09:26:07;12.53;;;6.63;;
10120;SDS011;5100;45.176;5.714;2023-02-02T09:28:37;9.60;;;6.70;;
10120;SDS011;5100;45.176;5.714;2023-02-02T09:31:04;10.30;;;6.37;;
10120;SDS011;5100;45.176;5.714;2023-02-02T09:33:31;9.63;;;6.37;;
10120;SDS011;5100;45.176;5.714;2023-02-02T09:36:04;10.00;;;7.00;;
10120;SDS011;5100;45.176;5.714;2023-02-02T09:38:35;10.07;;;7.03;;
10120;SDS011;5100;45.176;5.714;2023-02-02T09:41:24;11.97;;;6.50;;
10120;SDS011;5100;45.176;5.714;2023-02-02T09:49:15;7.80;;;5.97;;
10120;SDS011;5100;45.176;5.714;2023-02-02T09:51:48;12.73;;;7.17;;
10120;SDS011;5100;45.176;5.714;2023-02-02T09:54:23;8.37;;;6.00;;
10120;SDS011;5100;45.176;5.714;2023-02-02T09:56:53;8.13;;;6.10;;
10120;SDS011;5100;45.176;5.714;2023-02-02T09:59:24;9.87;;;7.10;;
10120;SDS011;5100;45.176;5.714;2023-02-02T10:02:00;9.70;;;6.43;;
10120;SDS011;5100;45.176;5.714;2023-02-02T10:04:34;10.67;;;6.93;;
10120;SDS011;5100;45.176;5.714;2023-02-02T10:07:06;12.30;;;7.00;;
10120;SDS011;5100;45.176;5.714;2023-02-02T10:09:46;7.93;;;6.50;;
10120;SDS011;5100;45.176;5.714;2023-02-02T10:15:07;9.53;;;5.97;;
10120;SDS011;5100;45.176;5.714;2023-02-02T10:17:57;14.47;;;6.83;;
10120;SDS011;5100;45.176;5.714;2023-02-02T10:20:32;8.27;;;6.13;;
10120;SDS011;5100;45.176;5.714;2023-02-02T10:23:11;8.93;;;6.13;;
10120;SDS011;5100;45.176;5.714;2023-02-02T10:25:54;6.90;;;6.10;;
10120;SDS011;5100;45.176;5.714;2023-02-02T10:28:33;8.07;;;6.07;;
10120;SDS011;5100;45.176;5.714;2023-02-02T10:31:10;10.20;;;5.50;;
10120;SDS011;5100;45.176;5.714;2023-02-02T10:33:54;11.47;;;6.20;;
10120;SDS011;5100;45.176;5.714;2023-02-02T10:36:39;10.20;;;5.77;;
10120;SDS011;5100;45.176;5.714;2023-02-02T10:39:18;8.27;;;5.60;;
10120;SDS011;5100;45.176;5.714;2023-02-02T10:44:49;6.57;;;5.57;;
10120;SDS011;5100;45.176;5.714;2023-02-02T10:47:24;5.73;;;4.87;;
10120;SDS011;5100;45.176;5.714;2023-02-02T10:50:25;9.93;;;5.37;;
10120;SDS011;5100;45.176;5.714;2023-02-02T10:52:46;8.87;;;5.40;;
10120;SDS011;5100;45.176;5.714;2023-02-02T11:00:42;9.17;;;5.20;;
10120;SDS011;5100;45.176;5.714;2023-02-02T11:03:17;7.13;;;4.63;;
10120;SDS011;5100;45.176;5.714;2023-02-02T11:05:45;7.77;;;4.57;;
10120;SDS011;5100;45.176;5.714;2023-02-02T11:08:40;8.50;;;5.13;;
10120;SDS011;5100;45.176;5.714;2023-02-02T11:16:20;6.90;;;4.37;;
10120;SDS011;5100;45.176;5.714;2023-02-02T11:18:48;7.83;;;4.83;;
10120;SDS011;5100;45.176;5.714;2023-02-02T11:21:22;10.40;;;4.63;;
10120;SDS011;5100;45.176;5.714;2023-02-02T11:26:49;10.53;;;5.43;;
10120;SDS011;5100;45.176;5.714;2023-02-02T11:29:24;11.10;;;5.90;;
10120;SDS011;5100;45.176;5.714;2023-02-02T11:31:52;12.13;;;5.60;;
10120;SDS011;5100;45.176;5.714;2023-02-02T11:34:19;9.43;;;5.50;;
10120;SDS011;5100;45.176;5.714;2023-02-02T11:39:47;7.40;;;5.13;;
10120;SDS011;5100;45.176;5.714;2023-02-02T11:42:19;7.67;;;5.43;;
10120;SDS011;5100;45.176;5.714;2023-02-02T11:44:50;8.50;;;5.43;;
10120;SDS011;5100;45.176;5.714;2023-02-02T11:47:29;6.67;;;5.17;;
10120;SDS011;5100;45.176;5.714;2023-02-02T11:49:57;8.27;;;5.13;;
10120;SDS011;5100;45.176;5.714;2023-02-02T11:52:26;6.83;;;4.47;;
10120;SDS011;5100;45.176;5.714;2023-02-02T11:54:56;9.70;;;4.70;;
10120;SDS011;5100;45.176;5.714;2023-02-02T11:57:24;12.30;;;5.47;;
10120;SDS011;5100;45.176;5.714;2023-02-02T12:02:36;6.90;;;4.37;;
10120;SDS011;5100;45.176;5.714;2023-02-02T12:07:56;7.70;;;4.50;;
10120;SDS011;5100;45.176;5.714;2023-02-02T12:21:01;8.13;;;3.10;;
10120;SDS011;5100;45.176;5.714;2023-02-02T12:26:15;10.07;;;3.10;;
10120;SDS011;5100;45.176;5.714;2023-02-02T12:37:51;5.30;;;2.90;;
10120;SDS011;5100;45.176;5.714;2023-02-02T12:48:38;7.27;;;2.63;;
10120;SDS011;5100;45.176;5.714;2023-02-02T12:54:12;9.03;;;2.83;;
10120;SDS011;5100;45.176;5.714;2023-02-02T12:59:16;5.50;;;3.03;;
10120;SDS011;5100;45.176;5.714;2023-02-02T13:02:02;5.47;;;2.53;;
10120;SDS011;5100;45.176;5.714;2023-02-02T13:07:34;4.87;;;2.27;;
10120;SDS011;5100;45.176;5.714;2023-02-02T13:15:56;7.10;;;2.00;;
10120;SDS011;5100;45.176;5.714;2023-02-02T13:18:35;5.27;;;2.37;;
10120;SDS011;5100;45.176;5.714;2023-02-02T13:21:07;6.37;;;2.30;;
10120;SDS011;5100;45.176;5.714;2023-02-02T13:23:40;4.13;;;2.17;;
10120;SDS011;5100;45.176;5.714;2023-02-02T13:26:14;5.43;;;2.50;;
10120;SDS011;5100;45.176;5.714;2023-02-02T13:31:50;6.00;;;2.40;;
10120;SDS011;5100;45.176;5.714;2023-02-02T13:34:25;6.67;;;2.33;;
10120;SDS011;5100;45.176;5.714;2023-02-02T13:36:56;4.17;;;1.80;;
10120;SDS011;5100;45.176;5.714;2023-02-02T13:39:38;6.53;;;2.33;;
10120;SDS011;5100;45.176;5.714;2023-02-02T13:45:33;4.23;;;1.97;;
10120;SDS011;5100;45.176;5.714;2023-02-02T13:54:31;6.57;;;2.27;;
10120;SDS011;5100;45.176;5.714;2023-02-02T14:02:41;4.00;;;2.13;;
10120;SDS011;5100;45.176;5.714;2023-02-02T14:05:19;5.70;;;2.40;;
10120;SDS011;5100;45.176;5.714;2023-02-02T14:07:45;5.37;;;2.17;;
10120;SDS011;5100;45.176;5.714;2023-02-02T14:10:20;3.33;;;2.00;;
10120;SDS011;5100;45.176;5.714;2023-02-02T14:12:47;6.10;;;2.30;;
10120;SDS011;5100;45.176;5.714;2023-02-02T14:15:13;5.37;;;2.23;;
10120;SDS011;5100;45.176;5.714;2023-02-02T14:20:37;6.00;;;2.30;;
10120;SDS011;5100;45.176;5.714;2023-02-02T14:23:55;4.90;;;2.40;;
10120;SDS011;5100;45.176;5.714;2023-02-02T14:26:16;5.70;;;2.40;;
10120;SDS011;5100;45.176;5.714;2023-02-02T14:28:45;3.43;;;2.17;;
10120;SDS011;5100;45.176;5.714;2023-02-02T14:31:25;5.27;;;2.20;;
10120;SDS011;5100;45.176;5.714;2023-02-02T14:34:13;5.43;;;2.27;;
10120;SDS011;5100;45.176;5.714;2023-02-02T14:36:52;5.63;;;2.00;;
10120;SDS011;5100;45.176;5.714;2023-02-02T14:39:36;5.93;;;2.07;;
10120;SDS011;5100;45.176;5.714;2023-02-02T14:48:10;6.10;;;2.60;;
10120;SDS011;5100;45.176;5.714;2023-02-02T14:50:46;5.33;;;2.93;;
10120;SDS011;5100;45.176;5.714;2023-02-02T14:53:20;6.63;;;2.40;;
10120;SDS011;5100;45.176;5.714;2023-02-02T14:55:59;5.03;;;2.30;;
10120;SDS011;5100;45.176;5.714;2023-02-02T14:58:42;4.70;;;2.40;;
10120;SDS011;5100;45.176;5.714;2023-02-02T15:01:30;5.90;;;2.50;;
10120;SDS011;5100;45.176;5.714;2023-02-02T15:06:47;6.77;;;2.80;;
10120;SDS011;5100;45.176;5.714;2023-02-02T15:22:46;7.07;;;2.70;;
10120;SDS011;5100;45.176;5.714;2023-02-02T15:25:47;4.47;;;2.30;;
10120;SDS011;5100;45.176;5.714;2023-02-02T15:31:06;9.33;;;3.60;;
10120;SDS011;5100;45.176;5.714;2023-02-02T15:33:57;4.20;;;2.50;;
10120;SDS011;5100;45.176;5.714;2023-02-02T15:36:26;6.67;;;2.40;;
10120;SDS011;5100;45.176;5.714;2023-02-02T15:41:46;7.00;;;2.77;;
10120;SDS011;5100;45.176;5.714;2023-02-02T15:44:35;6.90;;;3.33;;
10120;SDS011;5100;45.176;5.714;2023-02-02T15:47:01;6.47;;;2.93;;
10120;SDS011;5100;45.176;5.714;2023-02-02T15:49:29;4.87;;;2.70;;
10120;SDS011;5100;45.176;5.714;2023-02-02T15:51:58;4.43;;;2.20;;
10120;SDS011;5100;45.176;5.714;2023-02-02T15:56:56;6.53;;;3.00;;
10120;SDS011;5100;45.176;5.714;2023-02-02T15:59:26;4.97;;;2.90;;
10120;SDS011;5100;45.176;5.714;2023-02-02T16:02:28;5.57;;;2.70;;
10120;SDS011;5100;45.176;5.714;2023-02-02T16:04:54;5.83;;;3.10;;
10120;SDS011;5100;45.176;5.714;2023-02-02T16:07:22;5.60;;;2.97;;
10120;SDS011;5100;45.176;5.714;2023-02-02T16:09:55;6.10;;;3.53;;
10120;SDS011;5100;45.176;5.714;2023-02-02T16:12:25;7.33;;;3.77;;
10120;SDS011;5100;45.176;5.714;2023-02-02T16:14:51;6.77;;;3.30;;
10120;SDS011;5100;45.176;5.714;2023-02-02T16:17:21;5.63;;;3.23;;
10120;SDS011;5100;45.176;5.714;2023-02-02T16:19:59;5.67;;;3.13;;
10120;SDS011;5100;45.176;5.714;2023-02-02T16:22:28;6.77;;;2.87;;
10120;SDS011;5100;45.176;5.714;2023-02-02T16:24:57;6.40;;;3.13;;
10120;SDS011;5100;45.176;5.714;2023-02-02T16:27:28;5.03;;;2.50;;
10120;SDS011;5100;45.176;5.714;2023-02-02T16:29:57;6.07;;;3.10;;
10120;SDS011;5100;45.176;5.714;2023-02-02T16:32:30;8.30;;;3.10;;
10120;SDS011;5100;45.176;5.714;2023-02-02T16:34:56;6.27;;;2.93;;
10120;SDS011;5100;45.176;5.714;2023-02-02T16:37:27;7.57;;;2.83;;
10120;SDS011;5100;45.176;5.714;2023-02-02T16:45:48;6.23;;;3.03;;
10120;SDS011;5100;45.176;5.714;2023-02-02T16:48:22;6.40;;;3.30;;
10120;SDS011;5100;45.176;5.714;2023-02-02T16:51:03;10.13;;;3.17;;
10120;SDS011;5100;45.176;5.714;2023-02-02T16:53:35;6.77;;;3.23;;
10120;SDS011;5100;45.176;5.714;2023-02-02T16:56:03;5.27;;;3.10;;
10120;SDS011;5100;45.176;5.714;2023-02-02T16:58:29;5.97;;;3.20;;
10120;SDS011;5100;45.176;5.714;2023-02-02T17:01:07;8.90;;;3.00;;
10120;SDS011;5100;45.176;5.714;2023-02-02T17:03:37;5.60;;;3.07;;
10120;SDS011;5100;45.176;5.714;2023-02-02T17:06:06;6.87;;;3.20;;
10120;SDS011;5100;45.176;5.714;2023-02-02T17:08:34;12.03;;;4.17;;
10120;SDS011;5100;45.176;5.714;2023-02-02T17:11:22;7.97;;;3.30;;
10120;SDS011;5100;45.176;5.714;2023-02-02T17:13:51;10.60;;;3.53;;
10120;SDS011;5100;45.176;5.714;2023-02-02T17:16:20;7.60;;;3.27;;
10120;SDS011;5100;45.176;5.714;2023-02-02T17:18:48;8.83;;;3.07;;
10120;SDS011;5100;45.176;5.714;2023-02-02T17:21:16;7.20;;;3.10;;
10120;SDS011;5100;45.176;5.714;2023-02-02T17:23:46;9.37;;;3.00;;
10120;SDS011;5100;45.176;5.714;2023-02-02T17:26:15;6.97;;;3.37;;
10120;SDS011;5100;45.176;5.714;2023-02-02T17:28:42;6.83;;;3.00;;
10120;SDS011;5100;45.176;5.714;2023-02-02T17:31:10;10.80;;;3.87;;
10120;SDS011;5100;45.176;5.714;2023-02-02T17:33:38;8.87;;;3.30;;
10120;SDS011;5100;45.176;5.714;2023-02-02T17:36:05;9.30;;;3.10;;
10120;SDS011;5100;45.176;5.714;2023-02-02T17:38:32;11.20;;;3.67;;
10120;SDS011;5100;45.176;5.714;2023-02-02T17:40:59;7.13;;;3.20;;
10120;SDS011;5100;45.176;5.714;2023-02-02T17:43:26;9.40;;;3.60;;
10120;SDS011;5100;45.176;5.714;2023-02-02T17:45:53;8.97;;;3.70;;
10120;SDS011;5100;45.176;5.714;2023-02-02T17:48:19;8.80;;;3.53;;
10120;SDS011;5100;45.176;5.714;2023-02-02T17:50:45;11.00;;;4.00;;
10120;SDS011;5100;45.176;5.714;2023-02-02T17:53:13;8.73;;;3.27;;
10120;SDS011;5100;45.176;5.714;2023-02-02T17:55:41;8.30;;;3.40;;
10120;SDS011;5100;45.176;5.714;2023-02-02T17:58:09;7.23;;;3.33;;
10120;SDS011;5100;45.176;5.714;2023-02-02T18:00:39;7.53;;;2.87;;